Arcade, New York
Current Conditions -  °F | °C
As of 3:55 AM on Wednesday 22 Oct 2014 (Local Time) from KOLE Reporting Station
Overcast Overcast  
Wind Chill: 35°   Ceiling: 300
Heat Index: 41°   Visibility: 10mi
Dew Point: 41°   Wind: 9mph
Humidity: 100%   Direction: 10°N
Pressure: 30.04"   Gusts: NA
Location:  42.53°N, 78.42°W
Report Text: KOLE 220755Z AUTO 01008KT 10SM OVC003 05/05 A3004 RMK AO2
Loading
Personal Weather Stations






























Interactive Weather Map New forecast layout! Learn more

10-Day Weather Forecast

Advertisements
Track Severe Weather on mobile